Huvudsida
METAR-TAF:

METAR-TAF

Flygplatser :

Mahshahr Airport

Bandar-e Mahshahr, Iran

latitud: 30-33-23N, longitud: 049-09-07E, höjd: 2 m

Aktuellt väderrapport

Denna rapport gjordes för 1 timme och 11 minuter sedan, klockan 13:00 UTC
Vind 10 kt från väst/nordväst
Temperatur 47°C
Fuktighet 13%
Tryck 999 hPa
Sikt 10 km eller mer
Inga moln under 1 500 m eller inga cumulonimbus

METAR: OIAM 241300Z 30010KT CAVOK 47/12 Q0999

Tid: 18:41 (14:11 UTC)


TAF: saknas

Aktuella väderrapporter och prognoser från 4000 flygplatser (METAR- och TAF-rapporter).

De tillgängliga stationerna syns som gula och röda prickar på kartan.

För musen över prickarna för att se namnen på stationerna.

Klicka sedan för att få väderrapporter och prognoser.

För att ändra kartan: Klicka på de gröna knapparna med ett svart kors på för att zooma in; den gröna knappen med ett streck på för att zooma ut; eller på de gröna pilarna för angränsande kartor.


METAR-TAF: